Aviation Digital Data Service (ADDS)

Output produced by METARs form (0900 UTC 23 July 2019)
found at http://www.aviationweather.gov/metar/data/
 
METAR text: ETHN 230820Z 11007KT 9999 FEW360 28/12 Q1023 BLU+
Conditions at: ETHN (NIEDERSTETTEN (G, DE) observed 0820 UTC 23 July 2019
Temperature: 28.0°C (82°F)
Dewpoint: 12.0°C (54°F) [RH = 37%]
Pressure (altimeter): 30.21 inches Hg (1023.0 mb)
Winds: from the ESE (110 degrees) at 8 MPH (7 knots; 3.6 m/s)
Visibility: 6 or more miles (10+ km)
Ceiling: at least 12,000 feet AGL
Clouds: few clouds at 36000 feet AGL
Weather: no significant weather observed at this time

METAR text: ETHN 230720Z 14008KT 9999 FEW320 26/12 Q1023 BLU+
Conditions at: ETHN (NIEDERSTETTEN (G, DE) observed 0720 UTC 23 July 2019
Temperature: 26.0°C (79°F)
Dewpoint: 12.0°C (54°F) [RH = 42%]
Pressure (altimeter): 30.21 inches Hg (1023.0 mb)
Winds: from the SE (140 degrees) at 9 MPH (8 knots; 4.1 m/s)
Visibility: 6 or more miles (10+ km)
Ceiling: at least 12,000 feet AGL
Clouds: few clouds at 32000 feet AGL
Weather: no significant weather observed at this time

METAR text: ETHN 230620Z 11005KT 9999 FEW350 24/12 Q1024 BLU+
Conditions at: ETHN (NIEDERSTETTEN (G, DE) observed 0620 UTC 23 July 2019
Temperature: 24.0°C (75°F)
Dewpoint: 12.0°C (54°F) [RH = 47%]
Pressure (altimeter): 30.24 inches Hg (1024.0 mb)
Winds: from the ESE (110 degrees) at 6 MPH (5 knots; 2.6 m/s)
Visibility: 6 or more miles (10+ km)
Ceiling: at least 12,000 feet AGL
Clouds: few clouds at 35000 feet AGL
Weather: no significant weather observed at this time

METAR text: ETHN 230520Z 10005KT 9999 FEW380 20/12 Q1023 BLU+
Conditions at: ETHN (NIEDERSTETTEN (G, DE) observed 0520 UTC 23 July 2019
Temperature: 20.0°C (68°F)
Dewpoint: 12.0°C (54°F) [RH = 60%]
Pressure (altimeter): 30.21 inches Hg (1023.0 mb)
Winds: from the E (100 degrees) at 6 MPH (5 knots; 2.6 m/s)
Visibility: 6 or more miles (10+ km)
Ceiling: at least 12,000 feet AGL
Clouds: few clouds at 38000 feet AGL
Weather: no significant weather observed at this time

METAR text: ETHN 230420Z 08007KT 9999 FEW380 18/11 Q1023 BLU+
Conditions at: ETHN (NIEDERSTETTEN (G, DE) observed 0420 UTC 23 July 2019
Temperature: 18.0°C (64°F)
Dewpoint: 11.0°C (52°F) [RH = 64%]
Pressure (altimeter): 30.21 inches Hg (1023.0 mb)
Winds: from the E (80 degrees) at 8 MPH (7 knots; 3.6 m/s)
Visibility: 6 or more miles (10+ km)
Ceiling: at least 12,000 feet AGL
Clouds: few clouds at 38000 feet AGL
Weather: no significant weather observed at this time

METAR text: ETHN 230320Z VRB02KT 9999 FEW380 17/11 Q1024 BLU+
Conditions at: ETHN (NIEDERSTETTEN (G, DE) observed 0320 UTC 23 July 2019
Temperature: 17.0°C (63°F)
Dewpoint: 11.0°C (52°F) [RH = 68%]
Pressure (altimeter): 30.24 inches Hg (1024.0 mb)
Winds: variable direction winds at 2 MPH (2 knots; 1.0 m/s)
Visibility: 6 or more miles (10+ km)
Ceiling: at least 12,000 feet AGL
Clouds: few clouds at 38000 feet AGL
Weather: no significant weather observed at this time

METAR text: ETHN 230220Z 12003KT 9999 FEW380 18/11 Q1023 BLU+
Conditions at: ETHN (NIEDERSTETTEN (G, DE) observed 0220 UTC 23 July 2019
Temperature: 18.0°C (64°F)
Dewpoint: 11.0°C (52°F) [RH = 64%]
Pressure (altimeter): 30.21 inches Hg (1023.0 mb)
Winds: from the ESE (120 degrees) at 3 MPH (3 knots; 1.5 m/s)
Visibility: 6 or more miles (10+ km)
Ceiling: at least 12,000 feet AGL
Clouds: few clouds at 38000 feet AGL
Weather: no significant weather observed at this time

METAR text: ETHN 230120Z 09003KT 9999 FEW380 17/11 Q1024 BLU+
Conditions at: ETHN (NIEDERSTETTEN (G, DE) observed 0120 UTC 23 July 2019
Temperature: 17.0°C (63°F)
Dewpoint: 11.0°C (52°F) [RH = 68%]
Pressure (altimeter): 30.24 inches Hg (1024.0 mb)
Winds: from the E (90 degrees) at 3 MPH (3 knots; 1.5 m/s)
Visibility: 6 or more miles (10+ km)
Ceiling: at least 12,000 feet AGL
Clouds: few clouds at 38000 feet AGL
Weather: no significant weather observed at this time

METAR text: ETHN 230020Z 13003KT 9999 FEW380 17/11 Q1024 BLU+
Conditions at: ETHN (NIEDERSTETTEN (G, DE) observed 0020 UTC 23 July 2019
Temperature: 17.0°C (63°F)
Dewpoint: 11.0°C (52°F) [RH = 68%]
Pressure (altimeter): 30.24 inches Hg (1024.0 mb)
Winds: from the SE (130 degrees) at 3 MPH (3 knots; 1.5 m/s)
Visibility: 6 or more miles (10+ km)
Ceiling: at least 12,000 feet AGL
Clouds: few clouds at 38000 feet AGL
Weather: no significant weather observed at this time

METAR text: ETHN 222320Z 08004KT 9999 SCT380 17/11 Q1024 BLU+
Conditions at: ETHN (NIEDERSTETTEN (G, DE) observed 2320 UTC 22 July 2019
Temperature: 17.0°C (63°F)
Dewpoint: 11.0°C (52°F) [RH = 68%]
Pressure (altimeter): 30.24 inches Hg (1024.0 mb)
Winds: from the E (80 degrees) at 5 MPH (4 knots; 2.1 m/s)
Visibility: 6 or more miles (10+ km)
Ceiling: at least 12,000 feet AGL
Clouds: scattered clouds at 38000 feet AGL
Weather: no significant weather observed at this time

METAR text: ETHN 222220Z VRB02KT 9999 FEW380 18/11 Q1024 BLU+
Conditions at: ETHN (NIEDERSTETTEN (G, DE) observed 2220 UTC 22 July 2019
Temperature: 18.0°C (64°F)
Dewpoint: 11.0°C (52°F) [RH = 64%]
Pressure (altimeter): 30.24 inches Hg (1024.0 mb)
Winds: variable direction winds at 2 MPH (2 knots; 1.0 m/s)
Visibility: 6 or more miles (10+ km)
Ceiling: at least 12,000 feet AGL
Clouds: few clouds at 38000 feet AGL
Weather: no significant weather observed at this time

METAR text: ETHN 222200Z 04004KT 9999 FEW300 19/11 Q1024 BLU+FCST CANCEL
Conditions at: ETHN (NIEDERSTETTEN (G, DE) observed 2200 UTC 22 July 2019
Temperature: 19.0°C (66°F)
Dewpoint: 11.0°C (52°F) [RH = 60%]
Pressure (altimeter): 30.24 inches Hg (1024.0 mb)
Winds: from the NE (40 degrees) at 5 MPH (4 knots; 2.1 m/s)
Visibility: 6 or more miles (10+ km)
Ceiling: at least 12,000 feet AGL
Clouds: few clouds at 30000 feet AGL
Weather: no significant weather observed at this time

METAR text: ETHN 222120Z 04004KT 9999 FEW300 19/11 Q1024 BLU+BLU+
Conditions at: ETHN (NIEDERSTETTEN (G, DE) observed 2120 UTC 22 July 2019
Temperature: 19.0°C (66°F)
Dewpoint: 11.0°C (52°F) [RH = 60%]
Pressure (altimeter): 30.24 inches Hg (1024.0 mb)
Winds: from the NE (40 degrees) at 5 MPH (4 knots; 2.1 m/s)
Visibility: 6 or more miles (10+ km)
Ceiling: at least 12,000 feet AGL
Clouds: few clouds at 30000 feet AGL
Weather: no significant weather observed at this time

METAR text: ETHN 222020Z 02003KT 9999 FEW250 20/10 Q1024 BLU+BLU+
Conditions at: ETHN (NIEDERSTETTEN (G, DE) observed 2020 UTC 22 July 2019
Temperature: 20.0°C (68°F)
Dewpoint: 10.0°C (50°F) [RH = 53%]
Pressure (altimeter): 30.24 inches Hg (1024.0 mb)
Winds: from the NNE (20 degrees) at 3 MPH (3 knots; 1.5 m/s)
Visibility: 6 or more miles (10+ km)
Ceiling: at least 12,000 feet AGL
Clouds: few clouds at 25000 feet AGL
Weather: no significant weather observed at this time

METAR text: ETHN 221920Z 02003KT 9999 FEW250 24/09 Q1024 BLU+BLU+
Conditions at: ETHN (NIEDERSTETTEN (G, DE) observed 1920 UTC 22 July 2019
Temperature: 24.0°C (75°F)
Dewpoint: 9.0°C (48°F) [RH = 38%]
Pressure (altimeter): 30.24 inches Hg (1024.0 mb)
Winds: from the NNE (20 degrees) at 3 MPH (3 knots; 1.5 m/s)
Visibility: 6 or more miles (10+ km)
Ceiling: at least 12,000 feet AGL
Clouds: few clouds at 25000 feet AGL
Weather: no significant weather observed at this time

METAR text: ETHN 221820Z 36004KT 9999 FEW250 27/10 Q1024 BLU+BLU+
Conditions at: ETHN (NIEDERSTETTEN (G, DE) observed 1820 UTC 22 July 2019
Temperature: 27.0°C (81°F)
Dewpoint: 10.0°C (50°F) [RH = 34%]
Pressure (altimeter): 30.24 inches Hg (1024.0 mb)
Winds: from the N (360 degrees) at 5 MPH (4 knots; 2.1 m/s)
Visibility: 6 or more miles (10+ km)
Ceiling: at least 12,000 feet AGL
Clouds: few clouds at 25000 feet AGL
Weather: no significant weather observed at this time

METAR text: ETHN 221720Z 28007KT 9999 FEW250 28/09 Q1023 BLU+BLU+
Conditions at: ETHN (NIEDERSTETTEN (G, DE) observed 1720 UTC 22 July 2019
Temperature: 28.0°C (82°F)
Dewpoint: 9.0°C (48°F) [RH = 30%]
Pressure (altimeter): 30.21 inches Hg (1023.0 mb)
Winds: from the W (280 degrees) at 8 MPH (7 knots; 3.6 m/s)
Visibility: 6 or more miles (10+ km)
Ceiling: at least 12,000 feet AGL
Clouds: few clouds at 25000 feet AGL
Weather: no significant weather observed at this time

METAR text: ETHN 221620Z 29006KT 9999 FEW250 29/09 Q1023 BLU+BLU+
Conditions at: ETHN (NIEDERSTETTEN (G, DE) observed 1620 UTC 22 July 2019
Temperature: 29.0°C (84°F)
Dewpoint: 9.0°C (48°F) [RH = 29%]
Pressure (altimeter): 30.21 inches Hg (1023.0 mb)
Winds: from the WNW (290 degrees) at 7 MPH (6 knots; 3.1 m/s)
Visibility: 6 or more miles (10+ km)
Ceiling: at least 12,000 feet AGL
Clouds: few clouds at 25000 feet AGL
Weather: no significant weather observed at this time

METAR text: ETHN 221520Z 28007KT 9999 BKN350 29/10 Q1024 BLU+BLU+
Conditions at: ETHN (NIEDERSTETTEN (G, DE) observed 1520 UTC 22 July 2019
Temperature: 29.0°C (84°F)
Dewpoint: 10.0°C (50°F) [RH = 31%]
Pressure (altimeter): 30.24 inches Hg (1024.0 mb)
Winds: from the W (280 degrees) at 8 MPH (7 knots; 3.6 m/s)
Visibility: 6 or more miles (10+ km)
Ceiling: 35000 feet AGL
Clouds: broken clouds at 35000 feet AGL
Weather: no significant weather observed at this time

METAR text: ETHN 221420Z 28005KT 9999 FEW160 BKN320 29/10 Q1024 BLU+BLU+
Conditions at: ETHN (NIEDERSTETTEN (G, DE) observed 1420 UTC 22 July 2019
Temperature: 29.0°C (84°F)
Dewpoint: 10.0°C (50°F) [RH = 31%]
Pressure (altimeter): 30.24 inches Hg (1024.0 mb)
Winds: from the W (280 degrees) at 6 MPH (5 knots; 2.6 m/s)
Visibility: 6 or more miles (10+ km)
Ceiling: 32000 feet AGL
Clouds: few clouds at 16000 feet AGL
broken clouds at 32000 feet AGL
Weather: no significant weather observed at this time

METAR text: ETHN 221320Z 29008KT 9999 FEW055 BKN280 27/10 Q1024 BLU+BLU+
Conditions at: ETHN (NIEDERSTETTEN (G, DE) observed 1320 UTC 22 July 2019
Temperature: 27.0°C (81°F)
Dewpoint: 10.0°C (50°F) [RH = 34%]
Pressure (altimeter): 30.24 inches Hg (1024.0 mb)
Winds: from the WNW (290 degrees) at 9 MPH (8 knots; 4.1 m/s)
Visibility: 6 or more miles (10+ km)
Ceiling: 28000 feet AGL
Clouds: few clouds at 5500 feet AGL
broken clouds at 28000 feet AGL
Weather: no significant weather observed at this time

METAR text: ETHN 221220Z 29010KT 9999 FEW050 BKN300 27/10 Q1025 BLU+BLU+
Conditions at: ETHN (NIEDERSTETTEN (G, DE) observed 1220 UTC 22 July 2019
Temperature: 27.0°C (81°F)
Dewpoint: 10.0°C (50°F) [RH = 34%]
Pressure (altimeter): 30.27 inches Hg (1025.0 mb)
Winds: from the WNW (290 degrees) at 12 MPH (10 knots; 5.1 m/s)
Visibility: 6 or more miles (10+ km)
Ceiling: 30000 feet AGL
Clouds: few clouds at 5000 feet AGL
broken clouds at 30000 feet AGL
Weather: no significant weather observed at this time

METAR text: ETHN 221120Z 28010KT 9999 FEW050 BKN340 26/10 Q1025 BLU+BLU+
Conditions at: ETHN (NIEDERSTETTEN (G, DE) observed 1120 UTC 22 July 2019
Temperature: 26.0°C (79°F)
Dewpoint: 10.0°C (50°F) [RH = 37%]
Pressure (altimeter): 30.27 inches Hg (1025.0 mb)
Winds: from the W (280 degrees) at 12 MPH (10 knots; 5.1 m/s)
Visibility: 6 or more miles (10+ km)
Ceiling: 34000 feet AGL
Clouds: few clouds at 5000 feet AGL
broken clouds at 34000 feet AGL
Weather: no significant weather observed at this time

METAR text: ETHN 221020Z 26010KT 9999 FEW050 BKN340 26/12 Q1025 BLU+BLU+
Conditions at: ETHN (NIEDERSTETTEN (G, DE) observed 1020 UTC 22 July 2019
Temperature: 26.0°C (79°F)
Dewpoint: 12.0°C (54°F) [RH = 42%]
Pressure (altimeter): 30.27 inches Hg (1025.0 mb)
Winds: from the W (260 degrees) at 12 MPH (10 knots; 5.1 m/s)
Visibility: 6 or more miles (10+ km)
Ceiling: 34000 feet AGL
Clouds: few clouds at 5000 feet AGL
broken clouds at 34000 feet AGL
Weather: no significant weather observed at this time

METAR text: ETHN 220920Z 28009KT 9999 FEW050 BKN360 25/11 Q1025 BLU+BLU+
Conditions at: ETHN (NIEDERSTETTEN (G, DE) observed 0920 UTC 22 July 2019
Temperature: 25.0°C (77°F)
Dewpoint: 11.0°C (52°F) [RH = 41%]
Pressure (altimeter): 30.27 inches Hg (1025.0 mb)
Winds: from the W (280 degrees) at 10 MPH (9 knots; 4.6 m/s)
Visibility: 6 or more miles (10+ km)
Ceiling: 36000 feet AGL
Clouds: few clouds at 5000 feet AGL
broken clouds at 36000 feet AGL
Weather: no significant weather observed at this time

METAR text: ETHN 220820Z 29007KT 9999 BKN320 24/11 Q1025 BLU+BLU+
Conditions at: ETHN (NIEDERSTETTEN (G, DE) observed 0820 UTC 22 July 2019
Temperature: 24.0°C (75°F)
Dewpoint: 11.0°C (52°F) [RH = 44%]
Pressure (altimeter): 30.27 inches Hg (1025.0 mb)
Winds: from the WNW (290 degrees) at 8 MPH (7 knots; 3.6 m/s)
Visibility: 6 or more miles (10+ km)
Ceiling: 32000 feet AGL
Clouds: broken clouds at 32000 feet AGL
Weather: no significant weather observed at this time

METAR text: ETHN 220720Z 27004KT 9999 BKN320 22/12 Q1025 BLU+BLU+
Conditions at: ETHN (NIEDERSTETTEN (G, DE) observed 0720 UTC 22 July 2019
Temperature: 22.0°C (72°F)
Dewpoint: 12.0°C (54°F) [RH = 53%]
Pressure (altimeter): 30.27 inches Hg (1025.0 mb)
Winds: from the W (270 degrees) at 5 MPH (4 knots; 2.1 m/s)
Visibility: 6 or more miles (10+ km)
Ceiling: 32000 feet AGL
Clouds: broken clouds at 32000 feet AGL
Weather: no significant weather observed at this time

METAR text: ETHN 220620Z 28003KT 9999 BKN340 20/12 Q1025 BLU+BLU+
Conditions at: ETHN (NIEDERSTETTEN (G, DE) observed 0620 UTC 22 July 2019
Temperature: 20.0°C (68°F)
Dewpoint: 12.0°C (54°F) [RH = 60%]
Pressure (altimeter): 30.27 inches Hg (1025.0 mb)
Winds: from the W (280 degrees) at 3 MPH (3 knots; 1.5 m/s)
Visibility: 6 or more miles (10+ km)
Ceiling: 34000 feet AGL
Clouds: broken clouds at 34000 feet AGL
Weather: no significant weather observed at this time

METAR text: ETHN 220520Z 28002KT 9999 BKN340 17/13 Q1024 BLU+BLU+
Conditions at: ETHN (NIEDERSTETTEN (G, DE) observed 0520 UTC 22 July 2019
Temperature: 17.0°C (63°F)
Dewpoint: 13.0°C (55°F) [RH = 77%]
Pressure (altimeter): 30.24 inches Hg (1024.0 mb)
Winds: from the W (280 degrees) at 2 MPH (2 knots; 1.0 m/s)
Visibility: 6 or more miles (10+ km)
Ceiling: 34000 feet AGL
Clouds: broken clouds at 34000 feet AGL
Weather: no significant weather observed at this time

METAR text: ETHN 220420Z 25002KT 9999 BKN290 16/12 Q1024 BLU+
Conditions at: ETHN (NIEDERSTETTEN (G, DE) observed 0420 UTC 22 July 2019
Temperature: 16.0°C (61°F)
Dewpoint: 12.0°C (54°F) [RH = 77%]
Pressure (altimeter): 30.24 inches Hg (1024.0 mb)
Winds: from the WSW (250 degrees) at 2 MPH (2 knots; 1.0 m/s)
Visibility: 6 or more miles (10+ km)
Ceiling: 29000 feet AGL
Clouds: broken clouds at 29000 feet AGL
Weather: no significant weather observed at this time

METAR text: ETHN 220320Z VRB02KT 9999 FEW060 BKN310 15/12 Q1024 BLU+
Conditions at: ETHN (NIEDERSTETTEN (G, DE) observed 0320 UTC 22 July 2019
Temperature: 15.0°C (59°F)
Dewpoint: 12.0°C (54°F) [RH = 82%]
Pressure (altimeter): 30.24 inches Hg (1024.0 mb)
Winds: variable direction winds at 2 MPH (2 knots; 1.0 m/s)
Visibility: 6 or more miles (10+ km)
Ceiling: 31000 feet AGL
Clouds: few clouds at 6000 feet AGL
broken clouds at 31000 feet AGL
Weather: no significant weather observed at this time

METAR text: ETHN 220220Z 16003KT 9999 BKN320 15/12 Q1024 BLU+
Conditions at: ETHN (NIEDERSTETTEN (G, DE) observed 0220 UTC 22 July 2019
Temperature: 15.0°C (59°F)
Dewpoint: 12.0°C (54°F) [RH = 82%]
Pressure (altimeter): 30.24 inches Hg (1024.0 mb)
Winds: from the SSE (160 degrees) at 3 MPH (3 knots; 1.5 m/s)
Visibility: 6 or more miles (10+ km)
Ceiling: 32000 feet AGL
Clouds: broken clouds at 32000 feet AGL
Weather: no significant weather observed at this time

METAR text: ETHN 220120Z 14003KT 9999 BKN330 15/12 Q1024 BLU+
Conditions at: ETHN (NIEDERSTETTEN (G, DE) observed 0120 UTC 22 July 2019
Temperature: 15.0°C (59°F)
Dewpoint: 12.0°C (54°F) [RH = 82%]
Pressure (altimeter): 30.24 inches Hg (1024.0 mb)
Winds: from the SE (140 degrees) at 3 MPH (3 knots; 1.5 m/s)
Visibility: 6 or more miles (10+ km)
Ceiling: 33000 feet AGL
Clouds: broken clouds at 33000 feet AGL
Weather: no significant weather observed at this time

METAR text: ETHN 220020Z 14003KT 9999 SCT280 16/12 Q1024 BLU+
Conditions at: ETHN (NIEDERSTETTEN (G, DE) observed 0020 UTC 22 July 2019
Temperature: 16.0°C (61°F)
Dewpoint: 12.0°C (54°F) [RH = 77%]
Pressure (altimeter): 30.24 inches Hg (1024.0 mb)
Winds: from the SE (140 degrees) at 3 MPH (3 knots; 1.5 m/s)
Visibility: 6 or more miles (10+ km)
Ceiling: at least 12,000 feet AGL
Clouds: scattered clouds at 28000 feet AGL
Weather: no significant weather observed at this time

METAR text: ETHN 212320Z 09004KT 9999 SCT230 17/12 Q1024 BLU+
Conditions at: ETHN (NIEDERSTETTEN (G, DE) observed 2320 UTC 21 July 2019
Temperature: 17.0°C (63°F)
Dewpoint: 12.0°C (54°F) [RH = 72%]
Pressure (altimeter): 30.24 inches Hg (1024.0 mb)
Winds: from the E (90 degrees) at 5 MPH (4 knots; 2.1 m/s)
Visibility: 6 or more miles (10+ km)
Ceiling: at least 12,000 feet AGL
Clouds: scattered clouds at 23000 feet AGL
Weather: no significant weather observed at this time

METAR text: ETHN 212220Z 15002KT 9999 SCT190 18/12 Q1024 BLU+
Conditions at: ETHN (NIEDERSTETTEN (G, DE) observed 2220 UTC 21 July 2019
Temperature: 18.0°C (64°F)
Dewpoint: 12.0°C (54°F) [RH = 68%]
Pressure (altimeter): 30.24 inches Hg (1024.0 mb)
Winds: from the SSE (150 degrees) at 2 MPH (2 knots; 1.0 m/s)
Visibility: 6 or more miles (10+ km)
Ceiling: at least 12,000 feet AGL
Clouds: scattered clouds at 19000 feet AGL
Weather: no significant weather observed at this time

METAR text: ETHN 212120Z 15001KT 9999 BKN160 19/11 Q1024 BLU
Conditions at: ETHN (NIEDERSTETTEN (G, DE) observed 2120 UTC 21 July 2019
Temperature: 19.0°C (66°F)
Dewpoint: 11.0°C (52°F) [RH = 60%]
Pressure (altimeter): 30.24 inches Hg (1024.0 mb)
Winds: from the SSE (150 degrees) at 1 MPH (1 knots; 0.5 m/s)
Visibility: 6 or more miles (10+ km)
Ceiling: 16000 feet AGL
Clouds: broken clouds at 16000 feet AGL
Weather: no significant weather observed at this time

Forecast for: ETHN (NIEDERSTETTEN (G, DE)
Text: TAF ETHN 230700Z 2308/2317 09005KT 9999 NSW SKC
Forecast period: 0800 to 1700 UTC 23 July 2019
Forecast type: FROM: standard forecast or significant change
Winds: from the E (90 degrees) at 6 MPH (5 knots; 2.6 m/s)
Visibility: 6 or more miles 10+ km)
Clouds: clear skies
Weather: NSW  (no significant weather)